Time;durP1;ratioP1;P1;durP2;ratioP2;P2;SDS_P1;SDS_P2;PMS_P1;PMS_P2;Temp;Humidity;BMP_temperature;BMP_pressure;BME280_temperature;BME280_humidity;BME280_pressure;Samples;Min_cycle;Max_cycle;Signal;HPM_P1;HPM_P2
2024/03/25 00:00:42;;;;;;;;;;;;;;;;;;5135787;28;20031;-56
2024/03/25 00:03:08;;;;;;;38.93;5.60;;;;;;;;;;5131243;28;19908;-54
2024/03/25 00:05:33;;;;;;;34.58;5.40;;;;;;;;;;5135883;28;20024;-53
2024/03/25 00:07:59;;;;;;;26.35;4.57;;;;;;;;;;5136501;28;20043;-56
2024/03/25 00:10:25;;;;;;;21.98;4.60;;;;;;;;;;5136605;28;20024;-56
2024/03/25 00:12:54;;;;;;;48.47;8.20;;;;;;;;;;5134332;28;20020;-56
2024/03/25 00:15:19;;;;;;;43.80;6.97;;;;;;;;;;5130166;28;20027;-56
2024/03/25 00:17:46;;;;;;;33.42;5.95;;;;;;;;;;5135784;28;20087;-55
2024/03/25 00:20:12;;;;;;;38.30;7.18;;;;;;;;;;5118661;28;20053;-56
2024/03/25 00:22:38;;;;;;;43.75;8.68;;;;;;;;;;5135379;28;20036;-54
2024/03/25 00:25:04;;;;;;;55.47;11.03;;;;;;;;;;5129898;28;20030;-55
2024/03/25 00:27:30;;;;;;;35.30;6.50;;;;;;;;;;5134800;28;20291;-53
2024/03/25 00:29:55;;;;;;;48.83;7.50;;;;;;;;;;5134472;28;20368;-57
2024/03/25 00:32:21;;;;;;;42.80;7.27;;;;;;;;;;5134234;28;20043;-53
2024/03/25 00:34:46;;;;;;;49.90;7.70;;;;;;;;;;5122849;28;20092;-52
2024/03/25 00:37:12;;;;;;;35.38;5.03;;;;;;;;;;5135951;28;20028;-54
2024/03/25 00:39:37;;;;;;;29.73;6.33;;;;;;;;;;5130904;28;20052;-53
2024/03/25 00:42:03;;;;;;;30.50;5.07;;;;;;;;;;5130585;28;20252;-53
2024/03/25 00:44:29;;;;;;;37.17;5.82;;;;;;;;;;5132069;28;20038;-56
2024/03/25 00:46:55;;;;;;;31.83;6.32;;;;;;;;;;5131219;28;20099;-57
2024/03/25 00:49:21;;;;;;;33.97;7.50;;;;;;;;;;5135745;28;20057;-53
2024/03/25 00:51:47;;;;;;;56.30;7.85;;;;;;;;;;5135153;28;20271;-55
2024/03/25 00:54:12;;;;;;;55.37;11.57;;;;;;;;;;5126460;28;20035;-55
2024/03/25 00:56:37;;;;;;;43.37;7.97;;;;;;;;;;5111679;28;20263;-56
2024/03/25 00:59:03;;;;;;;44.50;9.05;;;;;;;;;;5135584;28;20091;-56
2024/03/25 01:01:32;;;;;;;56.60;9.20;;;;;;;;;;5135653;28;20032;-53
2024/03/25 01:03:58;;;;;;;58.15;9.95;;;;;;;;;;5133655;28;20267;-55
2024/03/25 01:06:24;;;;;;;33.50;7.90;;;;;;;;;;5124152;28;20028;-57
2024/03/25 01:08:50;;;;;;;49.93;11.37;;;;;;;;;;5130966;28;20061;-52
2024/03/25 01:11:16;;;;;;;58.28;14.50;;;;;;;;;;5135068;28;20260;-56
2024/03/25 01:13:41;;;;;;;59.63;12.43;;;;;;;;;;5135117;28;20115;-55
2024/03/25 01:16:07;;;;;;;69.55;12.82;;;;;;;;;;5134684;28;20050;-53
2024/03/25 01:18:33;;;;;;;45.92;8.30;;;;;;;;;;5135032;28;20034;-53
2024/03/25 01:20:59;;;;;;;33.87;7.13;;;;;;;;;;5134556;28;20051;-55
2024/03/25 01:23:25;;;;;;;29.30;5.03;;;;;;;;;;5133018;28;20293;-55
2024/03/25 01:25:51;;;;;;;28.48;5.10;;;;;;;;;;5119419;28;20035;-55
2024/03/25 01:28:16;;;;;;;31.00;5.43;;;;;;;;;;5125412;28;20043;-55
2024/03/25 01:30:41;;;;;;;36.77;6.37;;;;;;;;;;5135487;28;20467;-55
2024/03/25 01:33:07;;;;;;;31.92;6.72;;;;;;;;;;5135444;28;20019;-56
2024/03/25 01:35:33;;;;;;;26.98;6.32;;;;;;;;;;5122952;28;20028;-55
2024/03/25 01:37:59;;;;;;;56.63;8.45;;;;;;;;;;5131822;28;20030;-54
2024/03/25 01:40:25;;;;;;;51.03;10.47;;;;;;;;;;5134583;28;20095;-55
2024/03/25 01:42:57;;;;;;;73.25;10.80;;;;;;;;;;5131313;28;20024;-54
2024/03/25 01:45:23;;;;;;;57.97;9.60;;;;;;;;;;5132030;28;20035;-56
2024/03/25 01:47:48;;;;;;;57.50;11.60;;;;;;;;;;5130515;28;20047;-57
2024/03/25 01:50:13;;;;;;;62.43;11.50;;;;;;;;;;5133979;28;20028;-56
2024/03/25 01:52:39;;;;;;;58.17;12.27;;;;;;;;;;5132617;28;20023;-57
2024/03/25 01:55:07;;;;;;;44.50;8.80;;;;;;;;;;5129977;28;20070;-56
2024/03/25 01:57:33;;;;;;;54.72;8.10;;;;;;;;;;5137207;28;20035;-56
2024/03/25 01:59:59;;;;;;;47.80;7.07;;;;;;;;;;5139203;28;20034;-55
2024/03/25 02:02:26;;;;;;;50.40;8.82;;;;;;;;;;5121095;28;20043;-55
2024/03/25 02:04:52;;;;;;;31.77;8.48;;;;;;;;;;5137786;28;20023;-57
2024/03/25 02:07:17;;;;;;;32.75;5.82;;;;;;;;;;5134913;28;20039;-59
2024/03/25 02:09:43;;;;;;;34.70;6.07;;;;;;;;;;5120061;28;20070;-55
2024/03/25 02:12:09;;;;;;;41.30;6.90;;;;;;;;;;5130677;28;20055;-54
2024/03/25 02:14:35;;;;;;;53.85;6.18;;;;;;;;;;5127019;28;20027;-56
2024/03/25 02:17:01;;;;;;;39.92;5.97;;;;;;;;;;5136448;28;20044;-52
2024/03/25 02:19:27;;;;;;;40.22;8.95;;;;;;;;;;5132590;28;20053;-57
2024/03/25 02:21:52;;;;;;;44.63;9.57;;;;;;;;;;5136284;28;20055;-55
2024/03/25 02:24:19;;;;;;;46.10;9.45;;;;;;;;;;5135522;28;20028;-56
2024/03/25 02:26:44;;;;;;;39.15;7.90;;;;;;;;;;5138687;28;20031;-52
2024/03/25 02:29:10;;;;;;;39.00;6.87;;;;;;;;;;5136016;28;20124;-54
2024/03/25 02:31:35;;;;;;;36.22;6.05;;;;;;;;;;5138679;28;20088;-56
2024/03/25 02:34:02;;;;;;;55.20;9.30;;;;;;;;;;5137049;28;20034;-57
2024/03/25 02:36:27;;;;;;;44.80;9.00;;;;;;;;;;5138065;28;20051;-55
2024/03/25 02:38:53;;;;;;;60.80;10.30;;;;;;;;;;5135835;28;20283;-55
2024/03/25 02:41:19;;;;;;;49.43;10.93;;;;;;;;;;5137136;28;20264;-57
2024/03/25 02:43:44;;;;;;;42.83;8.88;;;;;;;;;;5137730;28;20270;-52
2024/03/25 02:46:09;;;;;;;42.93;7.67;;;;;;;;;;5138073;28;20031;-56
2024/03/25 02:48:35;;;;;;;33.10;5.40;;;;;;;;;;5135970;28;20083;-53
2024/03/25 02:51:00;;;;;;;33.67;6.50;;;;;;;;;;5137262;28;20015;-54
2024/03/25 02:53:26;;;;;;;23.70;4.65;;;;;;;;;;5138118;28;20038;-53
2024/03/25 02:55:51;;;;;;;28.27;5.13;;;;;;;;;;5125167;28;20029;-55
2024/03/25 02:58:17;;;;;;;35.03;4.88;;;;;;;;;;5132938;28;20043;-55
2024/03/25 03:00:42;;;;;;;21.60;5.70;;;;;;;;;;5138154;28;20043;-55
2024/03/25 03:03:08;;;;;;;42.45;9.57;;;;;;;;;;5138071;28;20036;-53
2024/03/25 03:05:35;;;;;;;47.53;11.43;;;;;;;;;;5137225;28;20125;-58
2024/03/25 03:08:00;;;;;;;60.50;19.23;;;;;;;;;;5135644;28;20032;-57
2024/03/25 03:10:26;;;;;;;55.10;12.60;;;;;;;;;;5137844;28;20049;-56
2024/03/25 03:12:51;;;;;;;41.10;6.30;;;;;;;;;;5138023;28;20270;-55
2024/03/25 03:15:17;;;;;;;30.63;8.82;;;;;;;;;;5134662;28;20091;-52
2024/03/25 03:17:42;;;;;;;23.60;6.03;;;;;;;;;;5106750;28;20028;-55
2024/03/25 03:20:08;;;;;;;50.30;6.93;;;;;;;;;;5134896;28;20091;-56
2024/03/25 03:22:35;;;;;;;23.05;7.53;;;;;;;;;;5137676;28;20038;-55
2024/03/25 03:25:00;;;;;;;34.38;8.60;;;;;;;;;;5137360;28;20031;-55
2024/03/25 03:27:26;;;;;;;40.50;9.48;;;;;;;;;;5136919;28;20031;-57
2024/03/25 03:29:51;;;;;;;44.17;11.60;;;;;;;;;;5137610;28;20031;-52
2024/03/25 03:32:17;;;;;;;25.60;7.28;;;;;;;;;;5137429;28;20027;-55
2024/03/25 03:34:42;;;;;;;36.10;9.47;;;;;;;;;;5134279;28;20061;-54
2024/03/25 03:37:08;;;;;;;27.30;6.05;;;;;;;;;;5129280;28;20696;-52
2024/03/25 03:39:33;;;;;;;33.43;7.73;;;;;;;;;;5133782;28;20032;-56
2024/03/25 03:41:58;;;;;;;32.77;6.43;;;;;;;;;;5136994;28;20099;-54
2024/03/25 03:44:24;;;;;;;30.23;8.00;;;;;;;;;;5136695;28;20024;-53
2024/03/25 03:46:49;;;;;;;25.90;6.43;;;;;;;;;;5128957;28;20036;-57
2024/03/25 03:49:15;;;;;;;40.30;6.95;;;;;;;;;;5129895;28;20031;-53
2024/03/25 03:51:40;;;;;;;28.65;5.32;;;;;;;;;;5136422;28;20047;-53
2024/03/25 03:54:06;;;;;;;32.37;5.67;;;;;;;;;;5136634;28;20016;-55
2024/03/25 03:56:32;;;;;;;29.08;5.88;;;;;;;;;;5136306;28;20276;-54
2024/03/25 03:58:57;;;;;;;34.15;5.80;;;;;;;;;;5131566;28;20036;-55
2024/03/25 04:01:22;;;;;;;35.30;5.70;;;;;;;;;;5136773;28;20035;-53
2024/03/25 04:03:48;;;;;;;24.53;5.23;;;;;;;;;;5134575;28;20023;-55
2024/03/25 04:06:13;;;;;;;31.58;6.70;;;;;;;;;;5127322;28;20040;-54
2024/03/25 04:08:39;;;;;;;44.17;6.63;;;;;;;;;;5135702;28;20031;-52
2024/03/25 04:11:09;;;;;;;24.00;6.28;;;;;;;;;;5136160;28;20028;-54
2024/03/25 04:13:35;;;;;;;49.70;9.07;;;;;;;;;;5123018;28;20019;-54
2024/03/25 04:16:04;;;;;;;34.70;7.40;;;;;;;;;;5127426;28;20040;-55
2024/03/25 04:18:31;;;;;;;27.80;7.00;;;;;;;;;;5133236;28;20050;-54
2024/03/25 04:20:56;;;;;;;25.05;5.97;;;;;;;;;;5135819;28;20112;-55
2024/03/25 04:23:22;;;;;;;22.33;5.70;;;;;;;;;;5136383;28;20024;-54
2024/03/25 04:25:48;;;;;;;27.42;5.72;;;;;;;;;;5131638;28;20040;-56
2024/03/25 04:28:14;;;;;;;32.22;6.53;;;;;;;;;;5135728;28;20057;-56
2024/03/25 04:30:39;;;;;;;36.10;8.87;;;;;;;;;;5133103;28;20035;-55
2024/03/25 04:33:05;;;;;;;27.87;5.43;;;;;;;;;;5133759;28;20421;-55
2024/03/25 04:35:30;;;;;;;40.55;7.30;;;;;;;;;;5128083;28;20028;-56
2024/03/25 04:37:56;;;;;;;28.42;5.88;;;;;;;;;;5129939;28;20088;-56
2024/03/25 04:40:21;;;;;;;23.37;5.60;;;;;;;;;;5133773;28;20028;-54
2024/03/25 04:42:47;;;;;;;30.45;6.18;;;;;;;;;;5134931;28;20023;-55
2024/03/25 04:45:13;;;;;;;32.57;6.23;;;;;;;;;;5132300;28;20039;-54
2024/03/25 04:47:39;;;;;;;25.58;5.47;;;;;;;;;;5131895;28;20020;-57
2024/03/25 04:50:05;;;;;;;30.10;6.75;;;;;;;;;;5133949;28;20047;-54
2024/03/25 04:52:31;;;;;;;29.77;6.22;;;;;;;;;;5135946;28;20023;-55
2024/03/25 04:54:56;;;;;;;34.40;5.97;;;;;;;;;;5135865;28;20040;-54
2024/03/25 04:57:22;;;;;;;42.88;7.40;;;;;;;;;;5121186;28;20038;-59
2024/03/25 04:59:48;;;;;;;32.05;6.88;;;;;;;;;;5135444;28;20074;-54
2024/03/25 05:02:13;;;;;;;24.67;5.80;;;;;;;;;;5134982;28;20047;-54
2024/03/25 05:04:39;;;;;;;33.65;7.25;;;;;;;;;;5135231;28;20047;-56
2024/03/25 05:07:05;;;;;;;23.65;6.53;;;;;;;;;;5134179;28;20028;-55
2024/03/25 05:09:31;;;;;;;32.03;7.97;;;;;;;;;;5125475;28;20059;-55
2024/03/25 05:11:56;;;;;;;35.25;8.48;;;;;;;;;;5131721;28;20040;-53
2024/03/25 05:14:22;;;;;;;34.93;6.20;;;;;;;;;;5122684;28;20027;-55
2024/03/25 05:16:48;;;;;;;47.60;8.63;;;;;;;;;;5131393;28;20272;-54
2024/03/25 05:19:14;;;;;;;29.08;8.50;;;;;;;;;;5135447;28;20054;-55
2024/03/25 05:21:40;;;;;;;26.10;7.40;;;;;;;;;;5122061;28;20035;-55
2024/03/25 05:24:06;;;;;;;34.45;8.13;;;;;;;;;;5128914;28;20069;-59
2024/03/25 05:26:32;;;;;;;51.73;8.80;;;;;;;;;;5131525;28;20028;-54
2024/03/25 05:28:57;;;;;;;28.40;7.68;;;;;;;;;;5117602;28;20027;-55
2024/03/25 05:31:23;;;;;;;28.97;7.63;;;;;;;;;;5130274;28;20094;-53
2024/03/25 05:33:48;;;;;;;32.88;7.82;;;;;;;;;;5133315;28;20263;-54
2024/03/25 05:36:15;;;;;;;44.67;8.38;;;;;;;;;;5130655;28;20032;-52
2024/03/25 05:38:41;;;;;;;36.23;8.80;;;;;;;;;;5135384;28;20042;-55
2024/03/25 05:41:07;;;;;;;36.65;9.02;;;;;;;;;;5135251;28;20263;-53
2024/03/25 05:43:32;;;;;;;54.20;10.68;;;;;;;;;;5134530;28;20095;-52
2024/03/25 05:45:58;;;;;;;31.20;9.93;;;;;;;;;;5129255;28;20038;-55
2024/03/25 05:48:26;;;;;;;38.23;8.10;;;;;;;;;;5130017;28;20371;-57
2024/03/25 05:51:07;;;;;;;44.20;9.52;;;;;;;;;;5122536;28;20079;-55
2024/03/25 05:53:33;;;;;;;35.00;8.65;;;;;;;;;;5134994;28;20095;-57
2024/03/25 05:56:01;;;;;;;23.90;7.37;;;;;;;;;;5126160;28;20031;-56
2024/03/25 05:58:27;;;;;;;32.72;7.57;;;;;;;;;;5133010;28;20035;-57
2024/03/25 06:00:53;;;;;;;42.22;8.77;;;;;;;;;;5135139;28;20039;-53
2024/03/25 06:03:18;;;;;;;35.43;8.47;;;;;;;;;;5135004;28;20031;-54
2024/03/25 06:05:43;;;;;;;33.93;9.07;;;;;;;;;;5134961;28;20031;-57
2024/03/25 06:08:18;;;;;;;43.47;9.20;;;;;;;;;;5133414;28;20036;-54
2024/03/25 06:10:43;;;;;;;34.28;8.88;;;;;;;;;;5125126;28;20083;-53
2024/03/25 06:13:09;;;;;;;51.03;8.60;;;;;;;;;;5134194;28;20036;-54
2024/03/25 06:15:34;;;;;;;36.08;10.23;;;;;;;;;;5134935;28;20027;-55
2024/03/25 06:18:00;;;;;;;41.72;9.88;;;;;;;;;;5129608;28;20047;-57
2024/03/25 06:20:25;;;;;;;31.52;8.75;;;;;;;;;;5132237;28;20106;-54
2024/03/25 06:22:51;;;;;;;37.88;8.85;;;;;;;;;;5134409;28;20020;-57
2024/03/25 06:25:17;;;;;;;41.33;9.68;;;;;;;;;;5116970;28;20062;-56
2024/03/25 06:27:44;;;;;;;35.40;9.55;;;;;;;;;;5133043;28;20028;-57
2024/03/25 06:35:38;;;;;;;30.30;11.38;;;;;;;;;;5125160;28;20023;-55
2024/03/25 06:38:04;;;;;;;21.20;8.20;;;;;;;;;;5130778;28;20038;-56
2024/03/25 06:40:30;;;;;;;39.95;9.60;;;;;;;;;;5133046;28;20020;-55
2024/03/25 06:42:57;;;;;;;36.50;11.82;;;;;;;;;;5130010;28;20088;-57
2024/03/25 06:45:23;;;;;;;34.00;11.60;;;;;;;;;;5137764;28;20031;-50
2024/03/25 06:47:48;;;;;;;38.90;9.40;;;;;;;;;;5137111;28;20103;-53
2024/03/25 06:50:14;;;;;;;35.13;8.02;;;;;;;;;;5138016;28;20039;-54
2024/03/25 06:52:39;;;;;;;38.30;8.17;;;;;;;;;;5132866;28;20058;-52
2024/03/25 06:55:05;;;;;;;34.33;8.68;;;;;;;;;;5132310;28;20020;-56
2024/03/25 06:57:30;;;;;;;42.22;8.32;;;;;;;;;;5132225;28;20055;-57
2024/03/25 06:59:57;;;;;;;37.07;9.17;;;;;;;;;;5137768;28;20031;-57
2024/03/25 07:02:23;;;;;;;38.10;8.10;;;;;;;;;;5129727;28;20259;-56
2024/03/25 07:04:48;;;;;;;41.40;9.10;;;;;;;;;;5136914;28;20036;-54
2024/03/25 07:07:14;;;;;;;36.80;8.02;;;;;;;;;;5135362;28;20046;-55
2024/03/25 07:09:39;;;;;;;32.17;8.80;;;;;;;;;;5137826;28;20059;-54
2024/03/25 07:12:05;;;;;;;25.77;8.45;;;;;;;;;;5134104;28;20039;-55
2024/03/25 07:14:30;;;;;;;39.23;8.73;;;;;;;;;;5137632;28;20122;-58
2024/03/25 07:16:56;;;;;;;46.70;9.13;;;;;;;;;;5127577;28;20252;-56
2024/03/25 07:19:21;;;;;;;24.80;9.80;;;;;;;;;;5131971;28;20042;-54
2024/03/25 07:21:47;;;;;;;30.60;8.70;;;;;;;;;;5129312;28;20036;-56
2024/03/25 07:24:12;;;;;;;26.97;8.23;;;;;;;;;;5131361;28;20036;-54
2024/03/25 07:26:38;;;;;;;27.75;8.90;;;;;;;;;;5125612;28;20051;-55
2024/03/25 07:29:03;;;;;;;31.40;10.20;;;;;;;;;;5133214;28;20047;-56
2024/03/25 07:31:29;;;;;;;37.73;10.23;;;;;;;;;;5129570;28;20024;-58
2024/03/25 07:33:54;;;;;;;40.30;12.97;;;;;;;;;;5137145;28;20280;-56
2024/03/25 07:36:20;;;;;;;22.35;9.10;;;;;;;;;;5129943;28;20040;-54
2024/03/25 07:38:45;;;;;;;31.35;11.93;;;;;;;;;;5128353;28;20099;-57
2024/03/25 07:41:11;;;;;;;29.57;11.63;;;;;;;;;;5135305;28;20061;-57
2024/03/25 07:43:36;;;;;;;34.10;12.03;;;;;;;;;;5137062;28;20260;-56
2024/03/25 07:46:02;;;;;;;40.55;13.15;;;;;;;;;;5134762;28;20031;-55
2024/03/25 07:48:27;;;;;;;33.30;12.18;;;;;;;;;;5136659;28;20031;-57
2024/03/25 07:50:53;;;;;;;36.63;10.37;;;;;;;;;;5126878;28;20090;-55
2024/03/25 07:53:18;;;;;;;32.23;12.30;;;;;;;;;;5136658;28;20260;-56
2024/03/25 07:55:43;;;;;;;29.50;11.67;;;;;;;;;;5131122;28;20032;-54
2024/03/25 07:58:09;;;;;;;30.92;10.88;;;;;;;;;;5129540;28;20032;-56
2024/03/25 08:00:35;;;;;;;34.33;12.63;;;;;;;;;;5134396;28;20028;-57
2024/03/25 08:03:00;;;;;;;30.00;11.60;;;;;;;;;;5136481;28;20283;-55
2024/03/25 08:05:26;;;;;;;34.60;11.73;;;;;;;;;;5131725;28;20271;-56
2024/03/25 08:07:52;;;;;;;33.70;12.10;;;;;;;;;;5124539;28;20058;-57
2024/03/25 08:10:18;;;;;;;32.10;11.60;;;;;;;;;;5136070;28;20031;-56
2024/03/25 08:12:43;;;;;;;36.43;12.47;;;;;;;;;;5136281;28;20036;-56
2024/03/25 08:15:09;;;;;;;23.27;9.65;;;;;;;;;;5135834;28;20019;-54
2024/03/25 08:17:34;;;;;;;43.33;11.97;;;;;;;;;;5126971;28;20035;-56
2024/03/25 08:19:59;;;;;;;31.60;10.73;;;;;;;;;;5134707;28;20083;-55
2024/03/25 08:22:25;;;;;;;26.40;10.93;;;;;;;;;;5136221;28;20043;-58
2024/03/25 08:24:50;;;;;;;38.27;11.03;;;;;;;;;;5135995;28;20027;-58
2024/03/25 08:27:15;;;;;;;39.47;11.98;;;;;;;;;;5134537;28;20032;-57
2024/03/25 08:29:41;;;;;;;31.92;10.98;;;;;;;;;;5121716;28;20032;-56
2024/03/25 08:32:06;;;;;;;30.38;11.02;;;;;;;;;;5130558;28;20087;-56
2024/03/25 08:34:32;;;;;;;25.13;11.65;;;;;;;;;;5135927;28;20038;-57
2024/03/25 08:36:57;;;;;;;48.60;13.67;;;;;;;;;;5127539;28;20063;-58
2024/03/25 08:39:23;;;;;;;29.02;12.05;;;;;;;;;;5134927;28;20031;-56
2024/03/25 08:41:49;;;;;;;31.67;10.88;;;;;;;;;;5135494;28;20028;-55
2024/03/25 08:44:14;;;;;;;40.43;13.10;;;;;;;;;;5131875;28;20034;-57
2024/03/25 08:46:39;;;;;;;29.20;10.23;;;;;;;;;;5134944;28;20031;-54
2024/03/25 08:49:05;;;;;;;35.05;11.18;;;;;;;;;;5125151;28;20031;-56
2024/03/25 08:51:31;;;;;;;34.60;10.93;;;;;;;;;;5135346;28;20035;-55
2024/03/25 08:53:56;;;;;;;24.40;9.17;;;;;;;;;;5121648;28;20263;-56
2024/03/25 08:56:21;;;;;;;31.30;10.07;;;;;;;;;;5135453;28;20292;-56
2024/03/25 08:58:47;;;;;;;26.90;9.00;;;;;;;;;;5134598;28;20043;-57
2024/03/25 09:01:14;;;;;;;30.07;8.37;;;;;;;;;;5132825;28;20087;-55
2024/03/25 09:03:39;;;;;;;30.53;9.67;;;;;;;;;;5127836;28;20076;-54
2024/03/25 09:06:05;;;;;;;21.48;7.25;;;;;;;;;;5129917;28;20260;-56
2024/03/25 09:11:02;;;;;;;18.65;6.53;;;;;;;;;;5131803;28;20070;-53
2024/03/25 09:11:17;;;;;;;26.13;7.07;;;;;;;;;;5122404;28;20020;-56
2024/03/25 09:13:42;;;;;;;22.50;7.00;;;;;;;;;;5135379;28;20331;-56
2024/03/25 09:16:08;;;;;;;28.50;7.47;;;;;;;;;;5134997;28;20075;-54
2024/03/25 09:18:33;;;;;;;19.70;7.33;;;;;;;;;;5134693;28;20090;-56
2024/03/25 09:20:58;;;;;;;22.00;7.10;;;;;;;;;;5135108;28;20031;-55
2024/03/25 09:23:24;;;;;;;23.25;5.85;;;;;;;;;;5132926;28;20031;-58
2024/03/25 09:25:53;;;;;;;28.23;7.43;;;;;;;;;;5135168;28;20027;-57
2024/03/25 09:28:18;;;;;;;39.00;12.33;;;;;;;;;;5133427;28;20031;-54
2024/03/25 09:30:44;;;;;;;24.25;8.57;;;;;;;;;;5134249;28;20279;-56
2024/03/25 09:33:09;;;;;;;22.60;6.53;;;;;;;;;;5124908;28;20023;-55
2024/03/25 09:35:34;;;;;;;20.70;7.03;;;;;;;;;;5126326;28;20036;-55
2024/03/25 09:37:59;;;;;;;21.37;6.30;;;;;;;;;;5125992;28;20037;-54
2024/03/25 09:40:26;;;;;;;13.50;6.38;;;;;;;;;;5131517;28;20036;-56
2024/03/25 09:43:01;;;;;;;17.95;6.30;;;;;;;;;;5123633;28;20080;-56
2024/03/25 09:45:27;;;;;;;16.80;5.67;;;;;;;;;;5131871;28;20059;-55
2024/03/25 09:47:54;;;;;;;21.10;6.27;;;;;;;;;;5132944;28;20023;-57
2024/03/25 09:50:20;;;;;;;15.43;6.73;;;;;;;;;;5134190;28;20032;-53
2024/03/25 09:52:45;;;;;;;17.02;7.47;;;;;;;;;;5134301;28;20024;-55
2024/03/25 09:55:11;;;;;;;28.95;7.03;;;;;;;;;;5131453;28;20032;-58
2024/03/25 09:57:38;;;;;;;;;;;;;;;;;;5133716;28;20065;-56
2024/03/25 10:00:04;;;;;;;16.23;6.93;;;;;;;;;;5134484;28;19907;-57
2024/03/25 10:02:38;;;;;;;16.57;6.83;;;;;;;;;;5134405;28;20044;-58
2024/03/25 10:05:05;;;;;;;15.63;6.80;;;;;;;;;;5133961;28;20051;-58
2024/03/25 10:07:31;;;;;;;13.90;6.93;;;;;;;;;;5133775;28;20034;-57
2024/03/25 10:09:57;;;;;;;16.90;5.63;;;;;;;;;;5130747;28;20032;-55
2024/03/25 10:12:22;;;;;;;18.97;6.13;;;;;;;;;;5128714;28;20274;-56
2024/03/25 10:14:48;;;;;;;21.15;5.90;;;;;;;;;;5134559;28;20023;-57
2024/03/25 10:17:13;;;;;;;14.02;6.40;;;;;;;;;;5127137;28;20061;-58
2024/03/25 10:19:38;;;;;;;15.95;5.70;;;;;;;;;;5137060;28;20051;-57
2024/03/25 10:22:05;;;;;;;13.30;5.60;;;;;;;;;;5136936;28;20032;-57
2024/03/25 10:24:40;;;;;;;19.70;5.50;;;;;;;;;;5138581;28;20034;-58
2024/03/25 10:27:05;;;;;;;14.33;5.30;;;;;;;;;;5129920;28;20050;-59
2024/03/25 10:29:31;;;;;;;13.77;5.97;;;;;;;;;;5128930;28;20042;-60
2024/03/25 10:32:00;;;;;;;12.73;5.70;;;;;;;;;;5135594;28;20035;-59
2024/03/25 10:34:26;;;;;;;11.93;4.87;;;;;;;;;;5113451;28;20096;-56
2024/03/25 10:36:55;;;;;;;10.75;4.40;;;;;;;;;;5138348;28;20028;-57
2024/03/25 10:39:23;;;;;;;11.23;4.47;;;;;;;;;;5127935;28;20019;-55
2024/03/25 10:41:49;;;;;;;10.60;3.83;;;;;;;;;;5137791;28;20054;-59
2024/03/25 10:44:15;;;;;;;11.02;4.32;;;;;;;;;;5138452;28;20087;-57
2024/03/25 10:46:41;;;;;;;13.10;5.20;;;;;;;;;;5137013;28;20034;-57
2024/03/25 10:49:16;;;;;;;14.23;5.72;;;;;;;;;;5136644;28;20051;-54
2024/03/25 10:51:42;;;;;;;13.87;4.73;;;;;;;;;;5127609;28;20024;-56
2024/03/25 10:54:08;;;;;;;12.82;4.63;;;;;;;;;;5134856;28;20039;-58
2024/03/25 10:56:33;;;;;;;;;;;;;;;;;;5114978;28;20027;-56
2024/03/25 10:59:00;;;;;;;16.90;4.47;;;;;;;;;;5129146;28;19934;-57
2024/03/25 11:01:25;;;;;;;12.20;4.47;;;;;;;;;;5137695;28;20035;-55
2024/03/25 11:03:51;;;;;;;18.25;5.68;;;;;;;;;;5130583;28;20043;-57
2024/03/25 11:06:16;;;;;;;11.48;4.88;;;;;;;;;;5137947;28;20027;-55
2024/03/25 11:08:46;;;;;;;14.73;5.03;;;;;;;;;;5137228;28;20035;-54
2024/03/25 11:11:12;;;;;;;8.97;4.23;;;;;;;;;;5133863;28;20058;-58
2024/03/25 11:13:38;;;;;;;11.65;4.75;;;;;;;;;;5133246;28;20040;-59
2024/03/25 11:16:03;;;;;;;9.80;4.70;;;;;;;;;;5135052;28;20042;-58
2024/03/25 11:18:30;;;;;;;12.02;4.55;;;;;;;;;;5136948;28;20031;-59
2024/03/25 11:21:02;;;;;;;13.93;4.60;;;;;;;;;;5137181;28;20028;-58
2024/03/25 11:23:35;;;;;;;8.50;3.47;;;;;;;;;;5115655;28;20043;-59
2024/03/25 11:26:00;;;;;;;13.85;4.60;;;;;;;;;;5137399;28;20056;-60
2024/03/25 11:28:26;;;;;;;;;;;;;;;;;;5126872;28;20036;-58
2024/03/25 11:30:54;;;;;;;11.32;4.18;;;;;;;;;;5134423;28;19907;-60
2024/03/25 11:33:22;;;;;;;7.13;3.20;;;;;;;;;;5102630;28;20032;-62
2024/03/25 11:35:47;;;;;;;7.13;3.15;;;;;;;;;;5137435;28;20038;-60
2024/03/25 11:38:13;;;;;;;;;;;;;;;;;;5132804;28;20055;-58
2024/03/25 11:40:41;;;;;;;11.05;3.80;;;;;;;;;;5135360;28;19930;-57
2024/03/25 11:43:06;;;;;;;7.20;3.35;;;;;;;;;;5136983;28;20027;-59
2024/03/25 11:45:31;;;;;;;9.50;3.42;;;;;;;;;;5117070;28;20046;-58
2024/03/25 11:47:57;;;;;;;9.50;3.22;;;;;;;;;;5134660;28;20065;-59
2024/03/25 11:50:23;;;;;;;9.05;2.85;;;;;;;;;;5134924;28;20024;-59
2024/03/25 11:52:50;;;;;;;8.73;3.13;;;;;;;;;;5130469;28;20127;-60
2024/03/25 11:55:18;;;;;;;9.00;2.95;;;;;;;;;;5136011;28;20104;-59
2024/03/25 11:57:43;;;;;;;8.70;2.70;;;;;;;;;;5131484;28;20163;-59
2024/03/25 12:00:14;;;;;;;9.35;3.20;;;;;;;;;;5126880;28;20028;-60
2024/03/25 12:02:43;;;;;;;7.18;3.30;;;;;;;;;;5136937;28;20036;-59
2024/03/25 12:05:09;;;;;;;7.85;3.10;;;;;;;;;;5131501;28;20105;-59
2024/03/25 12:07:35;;;;;;;7.78;3.15;;;;;;;;;;5131384;28;20032;-59
2024/03/25 12:12:45;;;;;;;7.72;3.33;;;;;;;;;;5135235;28;20070;-58
2024/03/25 12:15:11;;;;;;;7.53;3.47;;;;;;;;;;5136376;28;20028;-58
2024/03/25 12:17:36;;;;;;;6.32;2.88;;;;;;;;;;5134066;28;20047;-58
2024/03/25 12:20:05;;;;;;;9.45;3.33;;;;;;;;;;5133460;28;20063;-59
2024/03/25 12:22:32;;;;;;;8.68;3.53;;;;;;;;;;5133601;28;20038;-58
2024/03/25 12:24:58;;;;;;;8.98;3.78;;;;;;;;;;5136249;28;20038;-56
2024/03/25 12:27:24;;;;;;;8.73;3.75;;;;;;;;;;5135807;28;20028;-57
2024/03/25 12:30:01;;;;;;;8.75;4.15;;;;;;;;;;5123308;28;20091;-58
2024/03/25 12:32:35;;;;;;;14.73;4.45;;;;;;;;;;5135550;28;20058;-59
2024/03/25 12:35:01;;;;;;;10.32;4.32;;;;;;;;;;5126059;28;20097;-60
2024/03/25 12:37:26;;;;;;;18.23;6.32;;;;;;;;;;5135461;28;20051;-58
2024/03/25 12:39:52;;;;;;;8.25;3.63;;;;;;;;;;5129174;28;20035;-59
2024/03/25 12:42:17;;;;;;;9.45;3.85;;;;;;;;;;5133889;28;20069;-59
2024/03/25 12:44:43;;;;;;;10.13;3.80;;;;;;;;;;5135387;28;20020;-60
2024/03/25 12:47:09;;;;;;;10.18;3.72;;;;;;;;;;5134998;28;20115;-59
2024/03/25 12:49:35;;;;;;;5.97;2.80;;;;;;;;;;5131284;28;20028;-59
2024/03/25 12:52:00;;;;;;;7.35;3.22;;;;;;;;;;5129303;28;20028;-59
2024/03/25 12:54:26;;;;;;;9.13;3.63;;;;;;;;;;5134813;28;20031;-59
2024/03/25 12:56:51;;;;;;;8.00;4.20;;;;;;;;;;5133821;28;20054;-60
2024/03/25 12:59:16;;;;;;;10.70;4.95;;;;;;;;;;5114182;28;20031;-59
2024/03/25 13:01:42;;;;;;;10.50;4.05;;;;;;;;;;5131454;28;20064;-58
2024/03/25 13:04:08;;;;;;;13.30;4.65;;;;;;;;;;5130851;28;20031;-58
2024/03/25 13:06:33;;;;;;;8.85;3.72;;;;;;;;;;5135042;28;20091;-58
2024/03/25 13:08:59;;;;;;;9.20;3.67;;;;;;;;;;5134390;28;20027;-59
2024/03/25 13:11:24;;;;;;;7.20;3.30;;;;;;;;;;5131536;28;20039;-58
2024/03/25 13:13:50;;;;;;;7.30;3.78;;;;;;;;;;5131902;28;20083;-58
2024/03/25 13:16:15;;;;;;;9.38;3.45;;;;;;;;;;5129671;28;20034;-58
2024/03/25 13:18:41;;;;;;;12.13;4.22;;;;;;;;;;5129260;28;20032;-59
2024/03/25 13:21:06;;;;;;;8.63;3.38;;;;;;;;;;5127509;28;20062;-59
2024/03/25 13:23:32;;;;;;;12.48;3.78;;;;;;;;;;5132448;28;20095;-59
2024/03/25 13:25:57;;;;;;;11.80;3.80;;;;;;;;;;5134975;28;20043;-59
2024/03/25 13:28:22;;;;;;;7.30;3.78;;;;;;;;;;5135132;28;20053;-57
2024/03/25 13:30:47;;;;;;;6.30;3.20;;;;;;;;;;5133519;28;20023;-57
2024/03/25 13:33:13;;;;;;;8.68;3.92;;;;;;;;;;5115107;28;20066;-58
2024/03/25 13:35:38;;;;;;;9.30;4.03;;;;;;;;;;5133219;28;20027;-58
2024/03/25 13:38:03;;;;;;;9.07;4.00;;;;;;;;;;5124017;28;20034;-59
2024/03/25 13:40:29;;;;;;;9.52;3.90;;;;;;;;;;5132739;28;20046;-59
2024/03/25 13:42:54;;;;;;;7.93;3.53;;;;;;;;;;5134821;28;20028;-60
2024/03/25 13:45:20;;;;;;;11.82;6.50;;;;;;;;;;5130683;28;20035;-58
2024/03/25 13:47:45;;;;;;;9.13;4.20;;;;;;;;;;5131320;28;20087;-59
2024/03/25 13:50:11;;;;;;;10.23;4.43;;;;;;;;;;5126948;28;20032;-59
2024/03/25 13:52:36;;;;;;;24.95;8.52;;;;;;;;;;5139832;28;20086;-59
2024/03/25 13:55:02;;;;;;;18.50;7.30;;;;;;;;;;5139972;28;20053;-59
2024/03/25 13:57:28;;;;;;;11.80;4.10;;;;;;;;;;5128644;28;20061;-59
2024/03/25 13:59:53;;;;;;;11.13;4.03;;;;;;;;;;5140634;28;20040;-59
2024/03/25 14:02:19;;;;;;;12.48;4.60;;;;;;;;;;5135164;28;20467;-59
2024/03/25 14:04:45;;;;;;;9.88;3.30;;;;;;;;;;5139028;28;20046;-61
2024/03/25 14:07:11;;;;;;;13.82;4.88;;;;;;;;;;5141773;28;20046;-60
2024/03/25 14:09:36;;;;;;;18.00;4.80;;;;;;;;;;5133385;28;20108;-60
2024/03/25 14:12:03;;;;;;;12.60;3.78;;;;;;;;;;5140627;28;20057;-60
2024/03/25 14:14:28;;;;;;;8.95;3.60;;;;;;;;;;5141466;28;20056;-59
2024/03/25 14:16:53;;;;;;;10.23;4.20;;;;;;;;;;5140207;28;20055;-59
2024/03/25 14:19:19;;;;;;;9.70;3.65;;;;;;;;;;5141201;28;20042;-59
2024/03/25 14:21:44;;;;;;;8.32;3.38;;;;;;;;;;5136058;28;20054;-58
2024/03/25 14:24:10;;;;;;;12.65;4.72;;;;;;;;;;5140738;28;20024;-59
2024/03/25 14:26:35;;;;;;;19.42;9.75;;;;;;;;;;5139965;28;20032;-59
2024/03/25 14:29:01;;;;;;;9.30;4.53;;;;;;;;;;5132942;28;20031;-60
2024/03/25 14:31:28;;;;;;;7.30;3.40;;;;;;;;;;5139245;28;20036;-59